Date,TemperatureHighF,TemperatureAvgF,TemperatureLowF,DewpointHighF,DewpointAvgF,DewpointLowF,HumidityHigh,HumidityAvg,HumidityLow,PressureMaxIn,PressureMinIn,WindSpeedMaxMPH,WindSpeedAvgMPH,GustSpeedMaxMPH,PrecipitationSumIn
2014-1-1,65.1,48.3,33.7,52.0,40.1,29.0,89,74,59,30.19,29.87,13,5,20,0.00
2014-1-2,42.0,32.4,25.4,28.0,22.1,19.0,81,67,47,30.46,30.18,17,4,28,0.00
2014-1-3,49.9,38.0,25.3,29.0,24.5,19.0,81,60,37,30.46,30.04,13,4,17,0.00
2014-1-4,67.1,53.4,38.1,55.0,45.3,30.0,87,75,59,30.04,29.72,14,6,21,0.00
2014-1-5,59.0,34.3,20.4,55.0,25.4,10.0,88,70,57,30.53,29.73,20,7,25,0.00
2014-1-6,31.0,21.6,14.1,12.0,8.1,5.0,71,57,39,30.76,30.55,9,3,20,0.00
2014-1-7,44.5,32.2,19.2,20.0,14.8,11.0,74,51,31,30.58,30.29,8,3,17,0.00
2014-1-8,48.1,42.4,38.3,45.0,36.4,20.0,93,80,46,30.29,30.12,10,5,15,0.00
2014-1-9,50.2,43.2,37.8,49.0,42.1,37.0,97,95,93,30.20,29.96,7,3,10,0.00
2014-1-10,64.3,58.8,47.5,63.0,57.2,45.0,97,95,83,29.95,29.63,12,5,17,0.00
2014-1-11,63.9,50.9,40.1,44.0,36.9,32.0,96,63,31,30.07,29.80,14,2,14,0.00
2014-1-12,69.5,56.8,43.5,55.0,39.9,33.0,83,56,28,30.02,29.77,16,6,23,0.00
2014-1-13,62.5,54.6,41.2,59.0,38.5,25.0,90,57,33,30.04,29.75,9,3,23,0.00
2014-1-14,66.1,49.6,36.9,41.0,31.0,25.0,67,51,24,30.30,29.99,12,3,24,0.00
2014-1-15,53.0,42.6,32.9,29.0,26.1,23.0,71,54,35,30.37,30.07,7,2,11,0.00
2014-1-16,60.5,48.3,39.1,40.0,33.1,28.0,78,57,42,30.16,30.00,7,2,12,0.00
2014-1-17,51.6,44.7,36.8,28.0,21.1,17.0,59,40,26,30.34,30.16,9,3,19,0.00
2014-1-18,66.3,49.6,36.3,38.0,30.4,23.0,64,49,30,30.18,30.00,10,3,19,0.00
2014-1-19,60.8,48.7,36.4,33.0,30.6,27.0,74,51,32,30.29,30.02,5,2,11,0.00
2014-1-20,71.2,57.0,44.0,48.0,37.9,28.0,65,50,36,30.17,29.81,10,3,19,0.00
2014-1-21,50.6,41.5,32.7,32.0,20.8,14.0,56,45,29,30.39,30.15,14,3,26,0.00
2014-1-22,59.0,44.6,31.4,33.0,26.3,17.0,64,50,36,30.16,30.02,8,3,17,0.00
2014-1-23,43.3,34.0,23.9,26.0,15.6,5.0,59,47,39,30.75,30.16,19,5,33,0.00
2014-1-24,39.7,28.7,18.1,19.0,10.3,4.0,68,47,30,30.74,30.23,6,2,16,0.00
2014-1-25,63.6,45.4,27.9,37.0,28.5,20.0,76,54,33,30.23,29.95,6,2,9,0.00
2014-1-26,70.9,55.3,44.9,41.0,37.9,33.0,69,54,30,29.93,29.63,10,3,16,0.00
2014-1-27,49.6,36.9,26.1,39.0,14.7,3.0,75,42,27,30.32,29.75,18,6,34,0.00
2014-1-28,35.5,27.5,21.0,18.0,9.8,2.0,80,49,35,30.49,30.31,10,3,20,0.00
2014-1-29,45.2,31.3,16.0,17.0,13.2,9.0,82,51,26,30.47,30.19,10,2,11,0.00
2014-1-30,55.8,43.4,30.1,48.0,32.3,16.0,84,66,53,30.19,29.84,15,7,23,0.00
2014-1-31,74.1,62.2,52.1,58.0,54.6,48.0,90,77,55,29.87,29.73,13,6,18,0.00
2014-2-1,62.8,52.6,38.5,60.0,48.6,34.0,94,86,78,29.99,29.72,8,3,21,0.00
2014-2-2,37.2,33.1,29.7,34.0,30.8,27.0,94,91,87,30.25,29.98,14,5,22,0.00
2014-2-3,40.2,35.1,29.7,36.0,32.2,27.0,92,89,85,30.28,29.98,6,1,10,0.00
2014-2-4,44.0,40.0,37.5,42.0,38.2,35.0,95,93,87,30.11,29.87,11,2,14,0.00
2014-2-5,37.9,29.5,22.8,34.0,22.7,16.0,89,76,68,30.51,30.12,18,6,28,0.00
2014-2-6,24.8,22.2,18.1,20.0,16.6,11.0,84,79,72,30.59,30.40,9,3,21,0.00
2014-2-7,34.8,29.4,23.9,30.0,24.9,19.0,93,84,69,30.40,30.22,4,1,11,0.00
2014-2-8,48.6,38.9,31.7,42.0,36.4,30.0,96,91,78,30.23,30.01,9,2,13,0.00
2014-2-9,49.4,43.5,39.9,44.0,41.3,39.0,96,92,81,30.11,30.00,6,1,17,0.00
2014-2-10,40.1,35.4,31.8,39.0,33.5,30.0,95,93,86,30.25,30.09,11,2,19,0.00
2014-2-11,32.5,31.3,30.1,30.0,28.1,26.0,91,88,82,30.32,30.20,13,2,23,0.00
2014-2-12,49.7,38.1,29.2,34.0,29.7,27.0,91,74,50,30.21,30.03,10,2,16,0.00
2014-2-13,61.2,48.0,28.2,43.0,37.9,26.0,93,70,50,30.06,29.84,8,2,14,0.00
2014-2-14,67.4,54.4,45.0,47.0,38.1,28.0,87,58,26,30.07,29.73,10,4,26,0.00
2014-2-15,66.2,53.5,36.7,38.0,33.4,28.0,74,49,30,30.14,29.97,10,3,13,0.00
2014-2-16,72.4,62.0,49.8,60.0,52.6,34.0,85,72,55,30.04,29.84,9,4,20,0.00
2014-2-17,74.2,64.4,49.9,61.0,44.4,30.0,91,54,20,30.08,29.84,8,3,20,0.00
2014-2-18,75.7,63.7,49.9,63.0,49.6,31.0,88,61,42,30.06,29.81,11,4,16,0.00
2014-2-19,71.4,66.1,61.3,63.0,61.1,60.0,94,84,72,29.88,29.61,11,5,19,0.00
2014-2-20,72.6,61.6,42.2,64.0,49.6,34.0,87,67,31,30.06,29.59,18,6,25,0.00
2014-2-21,64.8,51.3,32.5,37.0,29.8,21.0,91,49,22,30.15,29.98,7,2,13,0.00
2014-2-22,72.5,60.1,47.2,50.0,42.6,32.0,76,54,34,30.00,29.79,10,4,16,0.00
2014-2-23,73.5,59.7,45.2,61.0,51.6,40.0,93,76,53,30.06,29.83,11,4,17,0.00
2014-2-24,57.7,51.0,44.7,47.0,42.8,39.0,85,74,66,30.14,30.00,7,2,11,0.00
2014-2-25,51.8,48.0,40.7,45.0,41.9,34.0,88,79,68,30.12,30.00,13,3,20,0.00
2014-2-26,43.2,36.5,30.0,34.0,23.7,19.0,78,61,44,30.28,30.12,12,4,26,0.00
2014-2-27,53.3,40.8,23.8,32.0,25.8,18.0,85,58,37,30.16,29.86,8,2,10,0.00
2014-2-28,71.7,56.0,41.7,54.0,46.1,32.0,92,71,50,29.87,29.67,16,6,22,0.00
2014-3-1,76.8,66.7,55.9,65.0,61.1,54.0,96,83,66,29.94,29.82,13,4,18,0.00
2014-3-2,69.8,33.6,20.9,65.0,31.1,17.0,94,90,75,30.32,29.85,19,7,28,0.00
2014-3-3,31.4,23.7,17.0,23.0,17.8,11.0,89,78,67,30.46,30.32,16,4,30,0.00
2014-3-4,43.3,33.2,24.4,33.0,27.7,22.0,92,81,64,30.31,30.04,8,2,12,0.00
2014-3-5,51.2,41.4,29.6,38.0,33.3,28.0,94,74,56,30.16,29.98,17,2,17,0.00
2014-3-6,53.8,44.1,34.3,42.0,38.0,32.0,90,80,63,30.23,30.03,11,2,20,0.00
2014-3-7,64.2,50.5,34.9,46.0,39.7,33.0,93,69,45,30.03,29.84,11,4,20,0.00
2014-3-8,57.2,48.7,37.7,53.0,45.0,35.0,93,87,78,30.27,29.87,11,5,21,0.00
2014-3-9,61.8,47.9,37.8,48.0,41.8,36.0,93,81,58,30.32,30.16,7,2,13,0.00
2014-3-10,72.7,57.8,40.5,55.0,47.7,39.0,96,73,43,30.16,29.82,8,2,11,0.00
2014-3-11,75.4,63.8,56.1,60.0,56.1,42.0,94,77,52,29.81,29.49,13,5,27,0.00
2014-3-12,60.2,52.1,42.8,42.0,33.7,27.0,71,52,30,30.24,29.75,21,6,30,0.00
2014-3-13,65.4,52.3,32.8,37.0,33.2,26.0,90,52,29,30.31,30.03,9,2,14,0.00
2014-3-14,68.7,58.2,45.9,55.0,48.5,36.0,84,71,56,30.07,29.93,13,4,17,0.00
2014-3-15,66.5,60.8,53.3,62.0,57.9,52.0,96,90,78,29.94,29.64,12,4,16,0.00
2014-3-16,54.2,47.4,41.3,53.0,43.4,35.0,97,86,78,30.02,29.68,20,6,29,0.00
2014-3-17,60.0,47.4,36.0,36.0,32.9,27.0,84,60,31,30.00,29.70,8,2,16,0.00
2014-3-18,76.8,62.0,47.1,55.0,46.5,34.0,73,58,34,29.84,29.57,15,7,21,0.00
2014-3-19,62.8,54.6,45.9,44.0,38.9,35.0,71,56,45,30.17,29.86,13,4,16,0.00
2014-3-20,69.9,56.3,41.1,39.0,34.8,30.0,76,47,27,30.20,29.97,8,2,10,0.00
2014-3-21,77.2,64.9,53.0,61.0,51.4,32.0,79,62,42,29.97,29.77,11,5,17,0.00
2014-3-22,65.5,60.4,53.9,62.0,57.0,51.0,94,88,78,30.04,29.86,7,2,17,0.00
2014-3-23,57.2,50.9,43.6,51.0,41.2,34.0,91,70,52,30.30,30.04,17,4,26,0.00
2014-3-24,64.5,51.6,39.9,41.0,37.0,32.0,85,60,39,30.21,30.00,7,1,10,0.00
2014-3-25,61.6,50.9,40.4,41.0,32.7,29.0,79,52,32,30.37,30.12,11,3,20,0.00
2014-3-26,60.1,52.7,43.4,50.0,39.5,30.0,79,61,51,30.18,29.91,14,7,24,0.00
2014-3-27,75.1,64.7,56.1,68.0,61.3,50.0,95,88,78,29.90,29.63,13,6,21,0.00
2014-3-28,78.7,67.4,51.8,68.0,62.0,46.0,93,83,66,30.00,29.69,10,3,21,0.00
2014-3-29,71.8,58.7,46.0,49.0,42.2,34.0,88,59,28,30.23,30.00,8,2,16,0.00
2014-3-30,74.5,62.7,47.3,48.0,41.6,34.0,71,48,33,30.18,29.95,13,4,18,0.00
2014-3-31,77.0,66.0,55.9,61.0,55.9,47.0,84,71,57,29.95,29.80,14,6,21,0.00
2014-4-1,79.6,70.8,63.4,67.0,63.7,60.0,91,79,60,29.95,29.78,15,5,17,0.00
2014-4-2,81.1,73.6,69.1,71.0,67.9,66.0,92,83,68,29.82,29.65,13,6,19,0.00
2014-4-3,80.1,74.8,62.9,70.0,67.9,51.0,88,79,66,29.82,29.57,13,6,25,0.00
2014-4-4,65.1,55.8,47.1,51.0,40.3,36.0,77,58,37,30.13,29.82,17,4,22,0.00
2014-4-5,54.9,51.3,49.3,44.0,40.3,36.0,80,67,59,30.12,29.90,10,3,16,0.00
2014-4-6,51.0,49.0,46.9,49.0,46.3,43.0,95,90,79,29.93,29.72,12,3,15,0.00
2014-4-7,63.6,53.9,48.9,53.0,49.6,47.0,95,86,65,29.96,29.76,7,1,18,0.00
2014-4-8,67.7,57.1,48.2,49.0,43.6,37.0,90,64,34,30.14,29.93,12,4,26,0.00
2014-4-9,75.9,61.8,41.8,51.0,45.5,37.0,87,58,38,30.21,29.98,9,3,14,0.00
2014-4-10,81.6,69.9,57.9,60.0,55.0,50.0,79,61,42,29.98,29.82,15,6,25,0.00
2014-4-11,79.7,69.6,61.3,65.0,60.6,54.0,89,74,58,29.99,29.84,15,5,18,0.00
2014-4-12,81.2,71.9,63.0,65.0,62.7,59.0,88,73,55,29.91,29.72,15,6,24,0.00
2014-4-13,73.7,68.9,65.5,71.0,65.5,60.0,96,89,77,29.76,29.55,14,5,16,0.00
2014-4-14,70.5,49.9,42.2,68.0,43.8,35.0,93,80,61,30.23,29.64,18,5,32,0.00
2014-4-15,62.2,49.8,37.1,35.0,31.7,27.0,80,53,28,30.30,30.10,5,1,12,0.00
2014-4-16,65.1,53.9,42.9,44.0,38.3,33.0,71,57,40,30.14,29.94,14,5,21,0.00
2014-4-17,67.4,58.7,47.0,56.0,50.4,41.0,90,74,63,30.15,30.02,6,1,10,0.00
2014-4-18,74.8,64.3,54.9,54.0,50.8,47.0,88,64,41,30.19,30.06,8,1,16,0.00
2014-4-19,86.5,65.6,54.5,85.0,56.9,50.0,95,75,48,30.16,30.03,6,1,13,0.06
2014-4-20,77.9,67.9,58.5,63.0,58.8,55.0,94,74,53,30.09,29.98,13,2,20,0.11
2014-4-21,79.8,67.5,60.7,70.0,63.7,59.0,97,88,72,30.03,29.84,12,3,22,1.38
2014-4-22,82.7,69.1,58.1,67.0,61.8,57.0,97,80,52,30.01,29.86,8,1,10,0.01
2014-4-23,84.1,72.4,57.8,67.0,62.4,55.0,94,73,51,29.89,29.69,8,2,13,0.00
2014-4-24,82.5,71.2,61.5,70.0,61.4,49.0,92,73,44,29.89,29.71,13,3,23,0.00
2014-4-25,81.3,67.5,55.8,50.0,45.8,39.0,68,48,25,30.01,29.83,9,2,13,0.00
2014-4-26,81.9,71.4,59.5,71.0,62.5,46.0,87,74,53,29.83,29.60,9,3,13,0.00
2014-4-27,86.0,74.1,67.3,75.0,69.1,64.0,97,85,68,29.61,29.35,12,3,40,0.60
2014-4-28,81.1,71.5,64.9,70.0,51.7,39.0,97,52,32,29.63,29.43,8,2,13,0.00
2014-4-29,74.0,64.3,49.8,52.0,46.5,42.0,80,54,33,29.91,29.59,15,3,21,0.00
2014-4-30,67.5,56.6,47.0,48.0,43.8,40.0,90,65,39,30.11,29.91,11,1,13,0.00
2014-5-1,73.2,58.6,40.7,47.0,42.3,38.0,93,60,30,30.13,29.97,7,1,15,0.00
2014-5-2,80.6,63.9,46.0,50.0,44.2,37.0,86,54,23,30.00,29.86,6,1,17,0.00
2014-5-3,86.7,69.2,49.3,57.0,47.4,40.0,79,49,23,29.99,29.91,4,0,7,0.00
2014-5-4,87.8,74.3,59.9,58.0,50.6,45.0,62,45,29,29.99,29.87,10,3,17,0.00
2014-5-5,85.0,73.1,59.6,66.0,57.3,42.0,82,59,46,29.90,29.72,11,3,18,0.00
2014-5-6,85.1,73.8,61.7,69.0,63.2,58.0,92,71,53,29.78,29.64,10,2,17,0.00
2014-5-7,82.1,73.5,67.1,69.0,65.8,62.0,87,77,62,29.80,29.70,7,2,11,0.00
2014-5-8,75.5,69.4,63.1,71.0,67.1,62.0,97,92,84,29.82,29.66,8,1,16,3.31
2014-5-9,83.9,74.1,63.3,76.0,70.3,62.0,97,88,74,29.86,29.73,8,2,14,0.00
2014-5-10,83.9,74.7,64.0,75.0,68.4,62.0,96,81,67,29.86,29.72,11,1,14,0.00
2014-5-11,86.1,78.2,70.5,74.0,71.1,68.0,94,79,65,29.79,29.64,7,2,19,0.00
2014-5-12,84.2,72.8,59.5,75.0,68.8,58.0,96,88,70,29.97,29.67,19,2,29,1.57
2014-5-13,65.8,59.4,55.3,58.0,53.8,51.0,96,82,69,30.20,29.96,8,2,13,0.02
2014-5-14,69.1,59.5,49.9,54.0,50.7,47.0,94,75,48,30.21,30.12,7,2,14,0.24
2014-5-15,80.0,63.5,46.3,60.0,50.3,45.0,95,66,31,30.21,30.02,12,3,17,0.00
2014-5-16,82.0,68.7,53.1,61.0,54.6,48.0,90,63,42,30.08,29.83,10,2,15,0.00
2014-5-17,80.5,70.1,55.1,66.0,58.6,50.0,83,68,56,29.98,29.83,9,2,17,0.00
2014-5-18,83.5,71.9,60.3,68.0,62.4,56.0,94,73,55,30.05,29.93,9,1,14,0.00
2014-5-19,83.3,73.5,64.1,68.0,64.7,62.0,92,75,57,30.00,29.86,17,2,18,0.00
2014-5-20,85.1,75.6,68.2,70.0,66.7,64.0,89,75,56,30.00,29.90,10,2,20,0.00
2014-5-21,85.8,75.2,66.6,72.0,66.8,64.0,94,76,54,30.04,29.91,9,2,14,0.00
2014-5-22,86.0,75.3,65.5,72.0,67.2,64.0,95,77,56,30.07,29.93,7,1,12,0.00
2014-5-23,83.4,74.4,67.3,72.0,68.3,65.0,93,81,66,30.05,29.93,4,0,9,0.00
2014-5-24,85.6,76.5,70.3,71.0,67.9,66.0,89,76,57,30.02,29.89,7,1,10,0.00
2014-5-25,87.9,77.6,70.1,72.0,68.8,67.0,92,75,56,29.98,29.87,6,1,11,0.00
2014-5-26,78.1,72.6,63.9,71.0,68.1,62.0,95,86,74,30.00,29.88,2,0,6,0.09
2014-5-27,79.1,69.8,65.3,68.0,65.7,64.0,96,87,65,29.92,29.80,8,2,13,0.17
2014-5-28,85.0,73.2,64.6,70.0,66.0,63.0,97,80,52,29.88,29.78,8,1,11,0.00
2014-5-29,89.8,76.5,65.6,71.0,67.9,64.0,95,76,52,29.85,29.73,6,1,9,0.00
2014-5-30,85.3,74.6,67.3,73.0,69.5,66.0,96,84,64,29.83,29.75,6,1,12,0.12
2014-5-31,86.5,75.9,69.4,74.0,70.6,67.0,96,84,65,29.89,29.80,10,2,12,0.00
2014-6-1,91.7,78.8,69.0,76.0,71.4,68.0,96,80,56,29.92,29.78,6,1,9,0.00
2014-6-2,91.7,80.6,73.3,75.0,72.1,70.0,92,76,54,29.97,29.81,4,0,11,0.00
2014-6-3,92.5,80.7,71.6,76.0,72.4,70.0,96,77,55,29.97,29.80,0,0,0,0.00
2014-6-4,91.0,81.3,72.7,75.0,72.6,71.0,95,76,56,29.84,29.72,0,0,0,0.00
2014-6-5,90.9,80.4,72.9,76.0,73.0,70.0,92,79,59,29.82,29.72,0,0,0,0.00
2014-6-6,93.1,81.2,72.0,76.0,72.3,70.0,95,76,52,29.91,29.75,0,0,0,0.00
2014-6-7,94.7,83.1,72.7,73.0,71.7,70.0,93,70,47,29.88,29.77,14,3,18,0.00
2014-6-8,88.6,80.2,74.9,75.0,72.3,70.0,88,77,58,29.92,29.71,12,3,21,0.03
2014-6-9,76.2,71.9,64.6,72.0,69.3,63.0,95,91,85,29.78,29.67,7,1,25,1.09
2014-6-15,93.3,78.1,77.4,75.0,56.9,-99.9,83,60,54,29.89,29.81,5,-93,11,0.00
2014-6-16,93.8,83.4,74.7,78.0,74.1,72.0,94,75,55,29.98,29.85,6,1,17,0.00
2014-6-17,94.0,82.2,74.4,79.0,74.7,69.0,91,79,57,29.96,29.84,18,2,26,0.47
2014-6-18,94.0,79.7,70.8,78.0,73.8,68.0,96,83,54,29.94,29.85,13,2,36,0.75
2014-6-19,92.4,81.9,73.8,78.0,73.8,71.0,95,78,51,30.01,29.91,10,1,14,0.00
2014-6-20,93.0,81.9,72.0,76.0,72.2,69.0,94,74,47,30.04,29.93,7,1,10,0.00
2014-6-21,90.0,80.8,71.8,76.0,72.9,70.0,94,78,56,29.99,29.84,7,1,10,0.00
2014-6-22,77.5,75.0,72.7,74.0,72.5,71.0,95,92,86,29.92,29.77,9,1,11,0.21
2014-6-23,86.9,76.8,71.1,74.0,71.7,69.0,96,85,59,29.90,29.75,10,2,13,0.11
2014-6-24,93.7,78.7,70.6,78.0,72.6,67.0,96,83,57,29.98,29.88,13,1,18,0.00
2014-6-25,80.6,74.0,69.9,76.0,71.2,68.0,96,91,81,30.01,29.91,4,0,9,0.11
2014-6-26,89.6,78.4,70.9,77.0,72.7,70.0,97,84,63,29.98,29.82,7,1,13,0.00
2014-6-27,90.7,79.5,71.4,77.0,73.3,70.0,95,82,64,29.88,29.75,7,1,14,0.00
2014-6-28,91.2,82.5,76.3,78.0,75.2,73.0,89,79,59,29.88,29.79,7,2,13,0.00
2014-6-29,92.6,85.0,78.6,79.0,75.9,74.0,89,75,59,29.97,29.86,11,2,17,0.00
2014-6-30,94.7,84.0,76.2,76.0,73.8,72.0,89,73,51,29.93,29.78,11,3,22,0.00
2014-7-1,93.4,81.9,71.9,77.0,73.6,70.0,94,77,55,29.94,29.79,10,2,14,0.00
2014-7-2,94.9,83.3,74.6,77.0,73.3,68.0,93,73,49,30.02,29.89,9,1,10,0.00
2014-7-3,84.3,77.1,68.1,74.0,69.7,66.0,93,79,62,30.11,29.99,7,1,14,0.13
2014-7-4,92.7,79.8,69.5,77.0,72.1,68.0,95,79,57,30.16,30.06,8,1,9,0.00
2014-7-5,93.9,80.8,69.6,74.0,70.8,67.0,94,74,50,30.14,29.99,6,1,10,0.00
2014-7-6,94.5,81.7,70.4,75.0,72.1,69.0,95,75,51,30.01,29.89,9,1,13,0.00
2014-7-7,97.3,84.4,71.9,75.0,72.2,70.0,95,69,43,29.94,29.84,10,2,17,0.00
2014-7-8,97.4,85.0,75.0,77.0,73.0,71.0,88,69,45,29.95,29.85,11,2,15,0.00
2014-7-9,99.1,85.6,72.9,75.0,71.1,67.0,83,64,41,30.00,29.86,8,2,11,0.00
2014-7-10,97.5,85.4,73.9,73.0,70.5,68.0,86,63,39,29.99,29.88,10,2,16,0.00
2014-7-11,97.3,84.0,69.4,73.0,69.6,66.0,89,64,41,30.07,29.97,8,1,17,0.00
2014-7-12,99.3,85.6,71.8,73.0,70.4,68.0,92,64,38,30.10,29.97,7,1,14,0.00
2014-7-13,101.1,86.9,72.2,75.0,71.5,68.0,94,64,35,30.03,29.89,7,1,12,0.00
2014-7-14,101.8,84.2,74.2,75.0,72.3,70.0,89,70,37,29.94,29.81,12,2,15,0.11
2014-7-15,91.9,80.3,70.9,73.0,65.6,54.0,93,65,30,29.99,29.88,9,2,17,0.00
2014-7-16,93.4,78.8,66.1,71.0,64.5,57.0,79,63,45,29.97,29.81,9,2,12,0.00
2014-7-17,76.0,70.7,66.0,69.0,67.1,65.0,96,88,73,29.90,29.82,11,3,15,1.57
2014-7-18,71.9,67.6,64.0,67.0,64.7,63.0,96,90,80,29.96,29.87,6,2,11,0.00
2014-7-19,78.0,71.1,65.5,68.0,66.1,64.0,95,85,69,30.00,29.93,4,0,6,0.01
2014-7-20,90.6,77.4,64.3,75.0,69.9,63.0,97,79,59,30.00,29.88,4,1,7,0.00
2014-7-21,97.1,82.3,69.5,79.0,73.3,68.0,94,76,49,30.00,29.89,5,1,8,0.00
2014-7-22,93.4,82.9,72.7,78.0,73.7,71.0,93,75,54,30.01,29.94,5,1,8,0.00
2014-7-23,95.9,81.1,69.2,75.0,71.1,68.0,95,74,49,30.04,29.90,20,1,28,0.00
2014-7-24,90.9,80.0,68.0,74.0,71.3,67.0,96,76,55,30.00,29.87,8,1,12,0.00
2014-7-25,99.1,84.6,70.8,77.0,73.5,70.0,96,72,45,29.96,29.84,8,1,12,0.00
2014-7-26,99.8,86.7,74.3,77.0,73.8,71.0,91,68,44,29.95,29.84,10,2,13,0.00
2014-7-27,101.4,87.9,76.6,75.0,73.6,72.0,88,65,41,29.98,29.89,9,2,16,0.00
2014-7-28,94.8,84.5,75.5,80.0,72.2,63.0,90,68,46,30.04,29.94,9,1,17,0.00
2014-7-29,90.7,79.2,67.9,69.0,66.3,63.0,86,66,43,30.07,29.98,5,1,10,0.00
2014-7-30,90.0,79.4,70.3,75.0,70.7,67.0,90,75,57,30.02,29.85,7,0,10,0.00
2014-7-31,84.8,74.6,68.8,79.0,71.8,68.0,97,91,75,29.94,29.85,10,2,17,2.72
2014-8-1,77.0,71.1,68.2,70.0,68.4,67.0,97,91,79,30.00,29.92,7,1,10,0.04
2014-8-2,83.5,74.7,67.2,71.0,69.1,66.0,96,83,64,30.05,29.95,7,1,13,0.00
2014-8-3,88.1,78.9,69.8,73.0,70.9,68.0,95,78,59,30.03,29.92,12,2,14,0.00
2014-8-4,89.7,80.5,72.2,75.0,71.5,69.0,95,76,52,30.01,29.92,6,1,10,0.00
2014-8-5,96.0,83.9,73.2,78.0,73.9,71.0,93,74,50,30.02,29.91,5,1,8,0.00
2014-8-6,96.4,85.0,75.3,77.0,74.4,73.0,93,72,48,29.97,29.83,8,1,12,0.00
2014-8-7,97.8,86.0,75.4,79.0,75.7,73.0,92,73,51,29.88,29.72,12,1,15,0.00
2014-8-8,100.8,87.7,77.3,77.0,74.9,73.0,87,67,44,29.87,29.76,9,2,15,0.00
2014-8-9,99.8,87.0,76.3,79.0,74.6,71.0,91,69,42,29.93,29.82,10,2,12,0.00
2014-8-10,101.0,85.9,75.1,78.0,74.3,71.0,92,70,40,29.96,29.84,7,1,11,0.00
2014-8-11,94.5,84.5,74.7,79.0,72.8,69.0,92,69,47,29.97,29.89,6,1,12,0.00
2014-8-12,91.9,80.7,67.1,73.0,65.5,57.0,91,63,33,30.00,29.92,9,1,16,0.00
2014-8-13,90.5,78.0,64.1,67.0,63.2,60.0,91,63,39,30.05,29.93,8,1,10,0.00
2014-8-14,92.1,79.2,65.2,68.0,65.1,62.0,90,64,42,30.02,29.90,6,1,10,0.00
2014-8-15,97.1,82.9,67.7,75.0,69.9,63.0,87,67,41,29.96,29.80,8,1,11,0.00
2014-8-16,101.6,82.9,75.8,76.0,73.3,71.0,92,75,39,29.88,29.77,10,2,17,0.62
2014-8-17,80.3,77.2,73.9,76.0,74.1,72.0,96,90,81,29.96,29.83,3,0,8,0.40
2014-8-18,92.4,82.3,74.4,79.0,75.8,73.0,97,82,56,29.91,29.78,18,2,18,0.01
2014-8-19,96.1,84.2,76.8,78.0,72.7,68.0,90,70,44,29.88,29.77,11,2,15,0.00
2014-8-20,96.6,85.2,75.0,78.0,73.9,71.0,93,71,47,29.92,29.83,10,2,15,0.00
2014-8-21,99.2,86.4,75.1,78.0,72.9,69.0,95,67,38,29.98,29.88,12,2,16,0.00
2014-8-22,100.7,87.5,77.0,76.0,72.3,66.0,89,63,33,29.99,29.86,9,2,17,0.00
2014-8-23,99.9,86.6,75.3,75.0,71.1,67.0,89,63,35,29.95,29.82,11,2,14,0.00
2014-8-24,101.0,86.6,74.1,74.0,71.1,68.0,89,63,35,29.90,29.78,7,1,12,0.00
2014-8-25,101.6,86.8,73.3,74.0,71.2,69.0,90,62,36,29.92,29.80,5,1,10,0.00
2014-8-26,96.1,84.2,74.6,79.0,73.1,71.0,90,71,48,29.98,29.87,7,2,17,0.30
2014-8-27,93.7,82.5,72.5,75.0,69.7,64.0,93,67,41,30.00,29.88,8,1,12,0.00
2014-8-28,98.8,84.4,70.7,75.0,70.0,64.0,88,64,40,29.91,29.76,5,1,9,0.03
2014-8-29,93.2,80.9,74.4,78.0,73.4,70.0,94,79,54,29.87,29.77,8,1,12,0.10
2014-8-30,93.9,81.5,71.5,75.0,71.6,69.0,95,74,47,29.91,29.80,8,0,8,0.00
2014-8-31,95.6,83.6,73.5,76.0,73.7,71.0,94,74,48,29.92,29.81,9,2,13,0.00
2014-9-1,97.0,84.8,76.1,76.0,73.3,70.0,90,70,46,29.88,29.78,9,2,15,0.00
2014-9-2,99.5,85.3,76.7,77.0,74.1,71.0,91,71,41,29.95,29.81,12,1,15,0.00
2014-9-3,98.5,85.6,75.0,77.0,73.4,70.0,94,70,42,29.94,29.84,5,1,13,0.00
2014-9-4,99.4,85.5,74.0,77.0,72.5,71.0,91,67,42,29.98,29.89,14,2,15,0.00
2014-9-5,100.4,84.9,72.3,77.0,71.1,68.0,93,66,38,30.04,29.89,7,1,11,0.00
2014-9-6,97.8,82.7,72.1,77.0,72.1,69.0,94,73,43,30.01,29.87,11,1,13,0.20
2014-9-7,89.3,78.3,71.4,75.0,71.8,69.0,95,81,61,30.02,29.91,5,1,10,0.00
2014-9-8,96.3,82.7,71.4,76.0,72.5,70.0,95,74,46,29.98,29.85,4,0,10,0.00
2014-9-9,98.3,85.3,73.6,76.0,72.3,70.0,92,67,40,29.92,29.74,8,1,14,0.00
2014-9-10,100.1,87.1,76.5,76.0,73.1,71.0,87,65,42,29.77,29.68,15,2,22,0.00
2014-9-11,93.0,80.8,72.7,78.0,74.2,71.0,94,81,59,29.95,29.76,7,2,12,0.06
2014-9-12,78.2,70.8,60.8,73.0,67.4,58.0,95,89,77,30.14,29.91,10,2,14,0.00
2014-9-13,67.5,62.7,58.5,61.0,58.0,55.0,92,84,77,30.21,30.12,11,2,14,0.00
2014-9-14,84.7,71.3,61.8,68.0,63.5,59.0,92,77,56,30.19,30.05,6,1,12,0.00
2014-9-15,89.3,77.4,68.5,73.0,69.6,65.0,93,78,55,30.09,30.00,5,1,10,0.01
2014-9-16,91.5,80.4,72.8,75.0,71.6,70.0,93,76,52,30.06,29.89,6,1,8,0.00
2014-9-17,96.0,81.5,70.8,76.0,72.3,69.0,96,76,45,29.92,29.78,7,1,8,0.00
2014-9-18,89.2,78.4,70.0,76.0,71.1,66.0,94,79,57,29.87,29.75,10,1,14,0.00
2014-9-19,90.9,76.8,68.0,73.0,69.7,66.0,96,80,53,29.92,29.82,8,2,11,0.00
2014-9-20,94.4,80.2,70.1,75.0,67.5,63.0,95,69,36,29.96,29.87,7,1,11,0.00
2014-9-21,95.3,81.5,67.1,71.0,67.0,62.0,92,65,34,30.03,29.92,7,1,11,0.00
2014-9-22,86.9,76.5,66.4,71.0,59.4,52.0,86,58,31,30.13,30.02,11,4,14,0.00
2014-9-23,84.3,70.8,58.6,56.0,54.0,51.0,83,59,33,30.14,30.02,7,2,11,0.00
2014-9-24,88.7,72.5,56.8,58.0,52.9,49.0,85,55,26,30.14,30.03,8,2,12,0.00
2014-9-25,86.9,73.8,61.1,62.0,57.9,56.0,86,60,35,30.14,30.03,9,1,13,0.00
2014-9-26,88.0,75.1,61.0,66.0,60.2,57.0,92,63,35,30.08,29.96,5,1,10,0.00
2014-9-27,86.5,75.6,65.9,66.0,61.9,58.0,83,64,39,30.03,29.91,8,2,11,0.00
2014-9-28,89.0,76.4,67.6,68.0,63.6,60.0,88,67,41,30.01,29.91,8,2,15,0.00
2014-9-29,88.4,75.3,62.7,69.0,64.7,60.0,91,71,45,29.96,29.83,12,2,13,0.00
2014-9-30,94.5,79.4,66.6,73.0,68.2,64.0,91,71,44,29.85,29.69,5,1,12,0.00
2014-10-1,94.4,81.3,71.7,74.0,71.2,68.0,94,73,45,29.77,29.67,6,1,14,0.00
2014-10-2,95.6,78.6,66.8,76.0,71.2,60.0,96,80,47,29.90,29.59,32,5,41,0.88
2014-10-3,81.7,68.6,56.2,60.0,54.8,48.0,93,64,35,30.17,29.90,5,1,22,0.00
2014-10-4,78.4,63.2,45.6,49.0,43.1,34.0,89,53,24,30.17,29.91,5,1,8,0.00
2014-10-5,85.7,70.4,56.3,66.0,58.1,45.0,84,66,51,29.92,29.76,17,3,22,0.00
2014-10-6,84.6,72.7,64.2,68.0,64.8,62.0,94,77,54,29.89,29.77,8,1,13,0.28
2014-10-7,93.5,78.7,66.5,75.0,69.7,63.0,94,76,51,29.88,29.79,9,2,14,0.00
2014-10-8,88.4,78.7,72.3,74.0,70.9,68.0,93,78,54,29.98,29.87,11,2,14,0.00
2014-10-9,89.9,80.0,73.7,75.0,71.7,67.0,93,77,56,29.94,29.80,7,1,13,0.00
2014-10-10,91.7,81.0,66.5,74.0,70.2,64.0,92,71,47,29.89,29.75,14,3,20,0.47
2014-10-11,66.1,61.9,58.4,65.0,59.2,54.0,96,90,84,30.02,29.85,8,2,11,1.23
2014-10-12,74.5,65.0,57.6,72.0,60.2,54.0,94,85,70,29.97,29.59,4,1,11,0.00
2014-10-13,75.1,63.3,59.5,71.0,58.0,50.0,96,83,69,29.89,29.52,19,6,37,1.21
2014-10-14,74.2,62.0,52.3,51.0,47.8,45.0,85,62,36,30.04,29.89,14,4,20,0.00
2014-10-15,83.3,64.6,47.4,59.0,50.8,46.0,95,66,32,30.05,29.91,3,0,5,0.00
2014-10-16,87.3,70.7,55.3,58.0,53.4,51.0,85,58,29,29.91,29.77,13,2,17,0.00
2014-10-17,87.5,72.9,61.4,65.0,60.6,56.0,88,67,42,29.91,29.77,10,2,14,0.00
2014-10-18,79.2,68.3,60.6,64.0,59.6,55.0,92,75,57,30.06,29.91,9,1,11,0.00
2014-10-19,76.2,63.8,54.9,59.0,55.2,52.0,91,75,54,30.13,30.00,5,1,9,0.00
2014-10-20,81.6,66.8,53.4,65.0,58.5,51.0,93,76,55,30.06,29.95,4,0,7,0.00
2014-10-21,82.1,68.1,54.8,65.0,59.8,53.0,95,77,51,30.07,29.96,4,0,8,0.00
2014-10-22,80.3,69.2,59.6,65.0,59.5,55.0,95,73,49,30.11,30.00,6,1,10,0.00
2014-10-23,78.1,66.4,59.3,61.0,56.9,55.0,87,73,54,30.12,30.01,4,0,6,0.00
2014-10-24,83.0,68.2,55.4,65.0,59.1,53.0,93,74,51,30.14,30.02,7,1,10,0.00
2014-10-25,88.6,73.0,59.7,66.0,62.6,58.0,94,72,47,30.10,29.98,13,2,17,0.00
2014-10-26,87.4,72.9,62.1,67.0,62.2,58.0,93,71,47,29.98,29.81,10,1,15,0.00
2014-10-27,83.7,72.5,63.1,67.0,62.0,58.0,92,71,51,29.85,29.74,16,3,22,0.00
2014-10-28,77.2,69.7,64.2,68.0,64.5,61.0,95,83,71,30.05,29.79,8,2,13,0.00
2014-10-29,74.9,63.0,53.0,60.0,51.0,45.0,93,68,34,30.17,30.05,8,2,16,0.00
2014-10-30,77.9,62.5,48.9,58.0,51.9,45.0,93,71,41,30.14,30.01,8,1,11,0.00
2014-10-31,67.0,57.5,43.8,51.0,43.8,36.0,73,61,44,30.32,30.10,12,3,13,0.00
2014-11-1,62.0,47.7,36.9,35.0,32.1,28.0,87,58,32,30.43,30.27,9,2,14,0.00
2014-11-2,68.5,53.2,39.0,47.0,39.6,32.0,81,62,43,30.35,30.17,6,1,9,0.00
2014-11-3,76.3,65.2,50.7,62.0,56.1,45.0,88,74,57,30.18,30.04,7,1,12,0.00
2014-11-4,67.3,61.0,53.1,65.0,58.8,52.0,96,92,83,30.17,30.01,7,2,16,1.07
2014-11-5,58.0,55.3,52.7,57.0,54.3,52.0,96,96,95,30.22,30.10,7,1,9,0.46
2014-11-6,70.8,57.3,47.4,54.0,47.3,38.0,97,72,44,30.30,30.19,10,1,11,0.00
2014-11-7,67.6,52.9,40.4,45.0,40.4,34.0,85,65,38,30.26,29.98,6,0,9,0.00
2014-11-8,68.3,54.5,44.6,51.0,43.3,37.0,93,69,38,30.12,29.98,11,1,16,0.00
2014-11-9,71.6,53.7,35.1,48.0,42.5,33.0,94,69,42,30.12,29.82,7,1,11,0.00
2014-11-10,76.8,64.0,49.7,60.0,51.6,44.0,86,66,45,29.82,29.60,22,4,30,0.00
2014-11-11,64.7,47.3,37.7,61.0,36.6,27.0,90,67,54,30.22,29.66,13,3,20,0.00
2014-11-12,44.0,36.8,32.4,29.0,23.9,18.0,73,60,49,30.47,30.22,10,3,15,0.00
2014-11-13,39.6,33.2,27.4,20.0,15.6,13.0,61,49,38,30.58,30.45,9,2,17,0.00
2014-11-14,42.4,35.1,24.6,24.0,20.4,16.0,72,56,40,30.48,30.28,3,1,8,0.00
2014-11-15,46.4,41.0,38.3,39.0,32.4,24.0,94,73,55,30.28,30.04,5,1,9,0.00
2014-11-16,40.3,37.8,29.7,39.0,35.9,27.0,96,92,83,30.24,29.95,7,2,13,0.00
2014-11-17,45.0,33.4,24.6,28.0,23.8,20.0,89,70,44,30.45,30.24,7,1,13,0.00
2014-11-18,54.5,38.6,21.4,28.0,23.7,19.0,89,59,31,30.51,30.30,11,3,21,0.00
2014-11-19,64.7,49.0,35.8,44.0,36.9,25.0,85,64,44,30.29,30.10,14,4,21,0.00
2014-11-20,72.3,58.4,45.3,58.0,51.7,43.0,93,80,56,30.12,29.97,9,2,15,0.00
2014-11-21,65.5,61.6,58.0,62.0,59.3,56.0,95,92,88,30.10,30.01,7,2,13,0.00
2014-11-22,68.1,62.0,59.2,61.0,58.5,56.0,96,88,76,30.07,29.59,9,2,15,0.00
2014-11-23,75.9,61.7,48.4,61.0,52.1,40.0,97,75,31,29.78,29.34,20,6,26,0.00
2014-11-24,60.8,48.3,35.6,40.0,35.3,29.0,88,64,32,30.15,29.79,7,1,13,0.00
2014-11-25,64.6,47.8,32.2,38.0,32.6,29.0,94,61,30,30.29,30.07,12,2,18,0.00
2014-11-26,68.5,51.9,42.0,43.0,36.2,30.0,78,57,32,30.36,30.02,7,2,11,0.00
2014-11-27,60.9,47.0,37.4,38.0,28.6,24.0,74,52,27,30.52,30.32,9,2,11,0.00
2014-11-28,69.0,55.7,41.4,54.0,44.9,30.0,84,68,56,30.31,29.96,22,5,25,0.00
2014-11-29,76.2,65.1,54.7,61.0,56.4,51.0,88,75,53,29.96,29.83,23,9,31,0.00
2014-11-30,78.5,70.1,64.0,65.0,62.0,60.0,88,76,57,30.07,29.87,26,7,27,0.00
2014-12-1,64.8,42.7,34.9,61.0,34.4,25.0,89,73,60,30.43,30.07,5,2,14,0.00
2014-12-2,51.4,42.0,33.9,44.0,31.2,24.0,82,66,49,30.41,30.15,4,1,9,0.00
2014-12-3,58.7,54.3,49.0,55.0,51.2,44.0,93,89,81,30.20,30.11,6,1,10,0.00
2014-12-4,68.3,61.1,55.6,61.0,57.4,54.0,94,88,77,30.17,30.00,4,1,6,0.00
2014-12-5,76.2,67.2,58.7,66.0,62.3,56.0,96,84,66,30.15,29.94,14,4,21,0.00
2014-12-6,66.7,57.0,45.3,56.0,50.2,43.0,92,79,59,30.36,30.16,12,3,17,0.00
2014-12-7,58.8,50.3,43.8,48.0,45.5,42.0,95,84,68,30.39,30.23,7,1,11,0.00
2014-12-8,62.3,48.6,40.0,50.0,44.2,39.0,96,86,63,30.34,30.25,3,0,6,0.00
2014-12-9,63.8,47.4,38.9,54.0,44.0,38.0,96,89,60,30.36,30.22,3,0,4,0.00
2014-12-10,56.5,49.1,41.6,48.0,44.7,40.0,96,85,73,30.26,30.13,6,2,9,0.00
2014-12-11,62.4,56.3,50.7,58.0,53.6,47.0,96,90,84,30.19,30.10,5,1,8,0.00
2014-12-12,67.2,60.2,56.3,62.0,57.6,55.0,96,91,80,30.23,30.14,5,2,10,0.00
2014-12-13,68.6,61.1,57.2,61.0,57.0,55.0,92,86,74,30.19,30.00,9,3,15,0.00
2014-12-14,67.7,63.9,60.7,64.0,61.0,58.0,95,90,80,30.00,29.73,16,5,22,0.00
2014-12-15,66.1,57.7,45.6,64.0,45.9,36.0,94,67,44,30.14,29.74,14,6,22,0.00
2014-12-16,53.2,44.6,36.4,39.0,35.4,33.0,89,71,56,30.34,30.14,5,1,12,0.00
2014-12-17,46.2,42.5,38.2,41.0,38.1,34.0,95,85,74,30.27,30.06,7,2,11,0.00
2014-12-18,48.1,45.0,40.9,47.0,43.9,40.0,96,95,94,30.16,30.08,8,2,11,0.00
2014-12-19,48.9,47.0,45.6,47.0,45.6,44.0,96,94,91,30.19,30.09,9,2,10,0.00
2014-12-20,49.3,47.3,46.0,47.0,45.2,44.0,94,92,89,30.24,30.15,4,1,6,0.00
2014-12-21,52.6,48.8,46.0,50.0,46.3,44.0,94,91,87,30.16,29.70,8,2,11,0.00
2014-12-22,67.7,57.8,49.8,56.0,50.5,46.0,92,78,48,29.68,29.51,20,5,21,0.00
2014-12-23,51.3,47.7,42.8,46.0,41.8,35.0,93,80,67,29.89,29.60,11,2,15,0.00
2014-12-24,51.2,43.9,35.9,39.0,35.6,31.0,86,73,58,30.04,29.89,13,3,17,0.00
2014-12-25,61.8,48.7,34.8,47.0,36.4,31.0,91,66,35,30.07,29.92,15,4,27,0.00
2014-12-26,63.5,59.3,53.7,61.0,55.6,47.0,96,88,76,29.95,29.86,12,4,14,0.00
2014-12-27,61.6,43.8,35.5,61.0,41.0,29.0,96,90,78,30.27,29.94,11,2,15,0.00
2014-12-28,45.9,37.1,28.8,32.0,29.1,25.0,90,74,53,30.27,30.14,6,1,10,0.00
2014-12-29,52.3,39.4,26.3,42.0,35.0,24.0,95,85,61,30.25,30.06,8,2,10,0.00
2014-12-30,45.4,39.5,34.0,39.0,33.3,30.0,90,79,62,30.52,30.26,13,4,17,0.00
2014-12-31,39.3,36.7,34.6,31.0,29.1,28.0,81,74,68,30.60,30.38,11,3,14,0.00
2015-1-1,38.0,36.3,33.8,37.0,34.4,30.0,95,93,80,30.39,30.19,5,1,8,0.00
2015-1-2,42.3,40.7,38.0,41.0,39.8,37.0,96,96,95,30.19,29.91,7,2,10,0.00